createdAt,value
2023-08-29T00:02:05.992Z,4.18
2023-08-29T00:04:38.381Z,3.63
2023-08-29T00:07:10.664Z,3.10
2023-08-29T00:09:42.997Z,3.17
2023-08-29T00:12:16.106Z,3.20
2023-08-29T00:14:48.421Z,3.70
2023-08-29T00:17:20.916Z,3.70
2023-08-29T00:19:53.493Z,3.90
2023-08-29T00:22:25.847Z,3.75
2023-08-29T00:24:58.580Z,3.45
2023-08-29T00:27:31.701Z,3.15
2023-08-29T00:30:05.172Z,3.28
2023-08-29T00:32:38.458Z,3.42
2023-08-29T00:35:10.921Z,3.38
2023-08-29T00:37:43.227Z,4.38
2023-08-29T00:40:15.725Z,3.30
2023-08-29T00:42:48.863Z,3.35
2023-08-29T00:45:22.450Z,3.58
2023-08-29T00:47:54.899Z,3.45
2023-08-29T00:50:27.540Z,3.25
2023-08-29T00:53:03.938Z,2.85
2023-08-29T00:55:36.689Z,3.50
2023-08-29T00:58:09.732Z,3.67
2023-08-29T01:00:42.907Z,3.42
2023-08-29T01:03:15.352Z,3.72
2023-08-29T01:05:47.771Z,3.33
2023-08-29T01:08:20.181Z,4.00
2023-08-29T01:11:01.051Z,3.40
2023-08-29T01:13:40.378Z,3.67
2023-08-29T01:16:16.760Z,3.97
2023-08-29T01:18:50.686Z,4.57
2023-08-29T01:21:33.017Z,4.22
2023-08-29T01:24:10.971Z,3.75
2023-08-29T01:26:45.188Z,3.25
2023-08-29T01:29:17.876Z,3.85
2023-08-29T01:31:51.318Z,3.88
2023-08-29T01:34:24.174Z,3.67
2023-08-29T01:36:56.516Z,3.95
2023-08-29T01:39:29.702Z,3.78
2023-08-29T01:42:02.888Z,3.70
2023-08-29T01:44:35.232Z,3.92
2023-08-29T01:47:07.622Z,3.72
2023-08-29T01:49:40.960Z,3.70
2023-08-29T01:52:13.461Z,4.07
2023-08-29T01:54:45.880Z,4.07
2023-08-29T01:57:20.781Z,4.35
2023-08-29T01:59:54.563Z,4.15
2023-08-29T02:02:26.983Z,4.00
2023-08-29T02:04:59.313Z,3.70
2023-08-29T02:07:31.909Z,3.65
2023-08-29T02:10:08.293Z,3.97
2023-08-29T02:12:41.378Z,4.05
2023-08-29T02:15:13.769Z,4.28
2023-08-29T02:17:46.956Z,5.00
2023-08-29T02:20:19.515Z,6.43
2023-08-29T02:22:51.872Z,7.28
2023-08-29T02:25:24.914Z,5.85
2023-08-29T02:27:58.458Z,5.22
2023-08-29T02:30:30.759Z,5.00
2023-08-29T02:33:03.424Z,4.30
2023-08-29T02:35:35.837Z,4.45
2023-08-29T02:38:08.236Z,4.88
2023-08-29T02:40:40.802Z,5.53
2023-08-29T02:43:13.855Z,4.70
2023-08-29T02:45:46.234Z,4.97
2023-08-29T02:48:18.620Z,4.95
2023-08-29T02:50:51.007Z,4.55
2023-08-29T02:53:23.357Z,5.22
2023-08-29T02:55:57.169Z,4.72
2023-08-29T02:58:30.165Z,4.30
2023-08-29T03:01:03.716Z,4.70
2023-08-29T03:03:36.188Z,4.57
2023-08-29T03:06:08.782Z,4.20
2023-08-29T03:08:41.195Z,3.95
2023-08-29T03:11:13.650Z,4.28
2023-08-29T03:13:46.862Z,3.88
2023-08-29T03:16:20.955Z,4.32
2023-08-29T03:18:53.739Z,4.25
2023-08-29T03:21:27.040Z,4.40
2023-08-29T03:23:59.398Z,4.93
2023-08-29T03:26:31.776Z,5.00
2023-08-29T03:29:05.382Z,4.47
2023-08-29T03:31:38.932Z,5.45
2023-08-29T03:34:11.263Z,4.53
2023-08-29T03:36:43.672Z,5.05
2023-08-29T03:39:16.025Z,4.53
2023-08-29T03:41:48.428Z,4.63
2023-08-29T03:44:21.475Z,4.53
2023-08-29T03:46:53.811Z,4.47
2023-08-29T03:49:26.184Z,5.00
2023-08-29T03:51:58.568Z,4.03
2023-08-29T03:54:30.929Z,4.90
2023-08-29T03:57:04.018Z,4.47
2023-08-29T03:59:37.023Z,4.68
2023-08-29T04:02:09.450Z,5.00
2023-08-29T04:04:44.656Z,4.85
2023-08-29T04:07:17.245Z,4.63
2023-08-29T04:09:49.598Z,4.47
2023-08-29T04:12:21.931Z,4.25
2023-08-29T04:14:55.116Z,4.75
2023-08-29T04:17:27.554Z,4.82
2023-08-29T04:20:01.267Z,4.40
2023-08-29T04:22:33.629Z,5.15
2023-08-29T04:25:07.827Z,4.65
2023-08-29T04:27:42.032Z,4.40
2023-08-29T04:30:15.415Z,4.38
2023-08-29T04:32:48.436Z,4.57
2023-08-29T04:35:20.845Z,4.82
2023-08-29T04:37:53.450Z,4.35
2023-08-29T04:40:27.297Z,5.55
2023-08-29T04:42:59.630Z,4.68
2023-08-29T04:45:33.283Z,4.57
2023-08-29T04:48:06.506Z,4.68
2023-08-29T04:50:40.117Z,4.82
2023-08-29T04:53:12.458Z,5.20
2023-08-29T04:55:44.814Z,5.60
2023-08-29T04:58:17.210Z,5.40
2023-08-29T05:00:51.582Z,4.68
2023-08-29T05:03:24.297Z,4.80
2023-08-29T05:05:58.184Z,4.85
2023-08-29T05:08:35.048Z,5.55
2023-08-29T05:11:07.416Z,5.35
2023-08-29T05:13:39.738Z,4.85
2023-08-29T05:16:12.890Z,5.20
2023-08-29T05:18:45.344Z,5.38
2023-08-29T05:21:17.803Z,4.63
2023-08-29T05:23:50.157Z,5.00
2023-08-29T05:26:25.520Z,4.78
2023-08-29T05:28:57.861Z,4.65
2023-08-29T05:31:30.935Z,4.85
2023-08-29T05:34:03.471Z,5.10
2023-08-29T05:36:35.916Z,4.43
2023-08-29T05:39:08.379Z,4.95
2023-08-29T05:41:40.819Z,4.13
2023-08-29T05:44:13.548Z,5.28
2023-08-29T05:46:46.758Z,3.97
2023-08-29T05:49:19.169Z,5.50
2023-08-29T05:51:52.952Z,5.03
2023-08-29T05:54:25.525Z,4.00
2023-08-29T05:56:57.876Z,3.47
2023-08-29T05:59:30.301Z,3.75
2023-08-29T06:02:06.304Z,3.47
2023-08-29T06:04:39.332Z,3.28
2023-08-29T06:07:11.646Z,3.85
2023-08-29T06:09:44.027Z,3.53
2023-08-29T06:12:16.399Z,3.30
2023-08-29T06:14:48.754Z,5.25
2023-08-29T06:17:21.874Z,4.05
2023-08-29T06:19:54.290Z,4.93
2023-08-29T06:22:26.825Z,3.70
2023-08-29T06:24:59.260Z,4.10
2023-08-29T06:27:33.278Z,3.33
2023-08-29T06:30:07.665Z,3.25
2023-08-29T06:32:40.757Z,3.13
2023-08-29T06:35:13.203Z,3.30
2023-08-29T06:37:45.716Z,2.90
2023-08-29T06:40:18.767Z,3.30
2023-08-29T06:42:51.164Z,3.45
2023-08-29T06:45:24.181Z,3.30
2023-08-29T06:47:58.574Z,3.38
2023-08-29T06:50:30.934Z,3.30
2023-08-29T06:53:04.446Z,3.38
2023-08-29T06:55:36.812Z,3.70
2023-08-29T06:58:09.266Z,3.13
2023-08-29T07:00:41.682Z,3.78
2023-08-29T07:03:14.915Z,3.53
2023-08-29T07:05:47.974Z,3.40
2023-08-29T07:08:20.335Z,3.20
2023-08-29T07:10:52.771Z,3.40
2023-08-29T07:13:25.127Z,3.42
2023-08-29T07:15:57.548Z,4.13
2023-08-29T07:18:30.916Z,3.50
2023-08-29T07:21:03.506Z,3.42
2023-08-29T07:23:35.887Z,3.97
2023-08-29T07:26:08.784Z,3.60
2023-08-29T07:28:41.319Z,3.60
2023-08-29T07:31:13.783Z,3.95
2023-08-29T07:33:46.874Z,4.13
2023-08-29T07:36:19.303Z,3.67
2023-08-29T07:38:51.699Z,4.05
2023-08-29T07:41:24.154Z,4.18
2023-08-29T07:43:56.543Z,3.45
2023-08-29T07:46:28.922Z,3.67
2023-08-29T07:49:02.152Z,3.65
2023-08-29T07:51:34.538Z,4.38
2023-08-29T07:54:07.306Z,4.43
2023-08-29T07:56:39.749Z,3.83
2023-08-29T07:59:12.095Z,3.42
2023-08-29T08:01:44.501Z,3.80
2023-08-29T08:04:18.770Z,4.43
2023-08-29T08:06:51.175Z,3.83
2023-08-29T08:09:24.642Z,4.05
2023-08-29T08:11:57.108Z,4.07
2023-08-29T08:14:29.616Z,3.75
2023-08-29T08:17:02.038Z,4.03
2023-08-29T08:19:35.097Z,3.75
2023-08-29T08:22:08.979Z,5.97
2023-08-29T08:24:41.512Z,3.67
2023-08-29T08:27:14.083Z,3.78
2023-08-29T08:29:46.525Z,3.80
2023-08-29T08:32:19.064Z,3.95
2023-08-29T08:34:52.151Z,4.18
2023-08-29T08:37:24.629Z,3.30
2023-08-29T08:39:57.020Z,4.00
2023-08-29T08:42:30.645Z,4.72
2023-08-29T08:45:06.046Z,3.72
2023-08-29T08:47:39.585Z,3.83
2023-08-29T08:50:12.786Z,3.42
2023-08-29T08:52:47.825Z,3.72
2023-08-29T08:55:20.588Z,3.45
2023-08-29T08:57:53.515Z,4.43
2023-08-29T09:00:25.988Z,3.60
2023-08-29T09:02:59.450Z,3.63
2023-08-29T09:05:32.501Z,3.85
2023-08-29T09:08:05.370Z,3.40
2023-08-29T09:10:40.347Z,3.75
2023-08-29T09:13:16.188Z,2.90
2023-08-29T09:15:48.731Z,3.17
2023-08-29T09:18:25.200Z,3.30
2023-08-29T09:21:01.183Z,3.70
2023-08-29T09:23:40.240Z,3.90
2023-08-29T09:28:47.119Z,3.00
2023-08-29T09:31:19.558Z,2.97
2023-08-29T09:33:52.223Z,4.57
2023-08-29T09:36:25.348Z,3.33
2023-08-29T09:38:58.836Z,3.38
2023-08-29T09:41:31.303Z,3.13
2023-08-29T09:44:12.020Z,3.10
2023-08-29T09:46:44.986Z,3.33
2023-08-29T09:49:17.433Z,3.53
2023-08-29T09:51:51.442Z,3.20
2023-08-29T09:54:25.281Z,3.33
2023-08-29T09:57:06.134Z,3.30
2023-08-29T09:59:40.300Z,2.88
2023-08-29T10:02:14.362Z,3.15
2023-08-29T10:04:50.360Z,3.40
2023-08-29T10:07:26.278Z,3.20
2023-08-29T10:10:00.050Z,3.63
2023-08-29T10:12:34.144Z,3.25
2023-08-29T10:15:08.647Z,3.40
2023-08-29T10:17:42.615Z,3.05
2023-08-29T10:20:18.936Z,2.72
2023-08-29T10:22:53.576Z,2.85
2023-08-29T10:25:28.788Z,2.67
2023-08-29T10:28:01.559Z,2.70
2023-08-29T10:30:35.048Z,3.25
2023-08-29T10:33:08.594Z,3.55
2023-08-29T10:35:41.376Z,3.10
2023-08-29T10:38:16.075Z,3.10
2023-08-29T10:40:49.110Z,3.13
2023-08-29T10:43:23.662Z,2.75
2023-08-29T10:45:57.671Z,3.05
2023-08-29T10:48:49.597Z,3.30
2023-08-29T10:51:24.262Z,2.67
2023-08-29T10:54:06.640Z,2.63
2023-08-29T10:56:41.729Z,3.03
2023-08-29T10:59:29.278Z,2.53
2023-08-29T11:02:26.193Z,3.55
2023-08-29T11:05:15.036Z,3.63
2023-08-29T11:07:47.620Z,3.40
2023-08-29T11:10:22.484Z,4.47
2023-08-29T11:13:09.556Z,3.80
2023-08-29T11:16:04.831Z,4.18
2023-08-29T11:18:37.871Z,4.35
2023-08-29T11:21:12.092Z,4.05
2023-08-29T11:23:45.324Z,3.25
2023-08-29T11:26:19.158Z,4.60
2023-08-29T11:28:52.334Z,4.07
2023-08-29T11:31:24.760Z,4.32
2023-08-29T11:33:57.746Z,3.97
2023-08-29T11:36:33.582Z,3.92
2023-08-29T11:39:08.370Z,3.67
2023-08-29T11:41:46.263Z,4.43
2023-08-29T11:45:22.303Z,3.92
2023-08-29T11:47:20.964Z,4.28
2023-08-29T11:49:53.637Z,3.63
2023-08-29T11:52:26.667Z,3.85
2023-08-29T11:55:01.515Z,3.55
2023-08-29T11:57:35.863Z,3.53
2023-08-29T12:00:10.697Z,3.90
2023-08-29T12:02:44.051Z,3.60
2023-08-29T12:05:20.718Z,3.90
2023-08-29T12:07:54.214Z,4.03
2023-08-29T12:10:27.614Z,4.85
2023-08-29T12:13:12.975Z,3.95
2023-08-29T12:15:46.788Z,3.42
2023-08-29T12:18:24.239Z,4.25
2023-08-29T12:21:12.364Z,4.10
2023-08-29T12:23:46.308Z,3.70
2023-08-29T12:26:19.560Z,4.10
2023-08-29T12:28:53.319Z,4.97
2023-08-29T12:31:25.899Z,4.13
2023-08-29T12:33:59.072Z,3.95
2023-08-29T12:36:32.410Z,3.80
2023-08-29T12:39:05.313Z,3.78
2023-08-29T12:41:39.923Z,4.63
2023-08-29T12:44:13.099Z,3.95
2023-08-29T12:46:46.020Z,3.92
2023-08-29T12:49:21.469Z,4.18
2023-08-29T12:51:54.291Z,4.20
2023-08-29T12:54:29.135Z,4.57
2023-08-29T12:57:01.659Z,3.72
2023-08-29T12:59:34.864Z,3.38
2023-08-29T13:02:07.334Z,3.53
2023-08-29T13:04:39.768Z,4.05
2023-08-29T13:07:12.160Z,3.60
2023-08-29T13:09:45.599Z,4.40
2023-08-29T13:12:18.059Z,5.00
2023-08-29T13:14:51.068Z,4.05
2023-08-29T13:17:24.007Z,4.78
2023-08-29T13:19:56.420Z,4.32
2023-08-29T13:22:28.775Z,4.80
2023-08-29T13:25:01.590Z,3.72
2023-08-29T13:27:34.575Z,4.22
2023-08-29T13:30:08.882Z,4.13
2023-08-29T13:32:41.342Z,6.45
2023-08-29T13:35:15.357Z,3.55
2023-08-29T13:37:47.809Z,4.97
2023-08-29T13:40:21.158Z,4.38
2023-08-29T13:42:53.630Z,4.18
2023-08-29T13:45:26.937Z,4.10
2023-08-29T13:47:59.395Z,3.95
2023-08-29T13:50:31.807Z,3.90
2023-08-29T13:53:04.314Z,4.43
2023-08-29T13:55:36.645Z,3.95
2023-08-29T13:58:09.388Z,4.47
2023-08-29T14:00:42.656Z,4.28
2023-08-29T14:03:25.401Z,4.45
2023-08-29T14:06:06.312Z,4.40
2023-08-29T14:08:39.042Z,4.65
2023-08-29T14:11:11.422Z,4.47
2023-08-29T14:13:45.867Z,4.55
2023-08-29T14:16:18.951Z,4.45
2023-08-29T14:18:51.296Z,4.10
2023-08-29T14:21:23.629Z,4.53
2023-08-29T14:23:56.102Z,4.82
2023-08-29T14:26:28.429Z,5.93
2023-08-29T14:29:00.942Z,4.80
2023-08-29T14:31:34.020Z,4.68
2023-08-29T14:34:06.745Z,3.92
2023-08-29T14:36:39.146Z,4.35
2023-08-29T14:39:11.480Z,4.65
2023-08-29T14:41:44.034Z,4.38
2023-08-29T14:44:16.366Z,5.15
2023-08-29T14:46:49.482Z,4.97
2023-08-29T14:49:21.891Z,4.95
2023-08-29T14:51:54.603Z,4.88
2023-08-29T14:54:27.172Z,4.80
2023-08-29T14:56:59.507Z,4.38
2023-08-29T14:59:31.821Z,4.20
2023-08-29T15:02:05.247Z,4.97
2023-08-29T15:04:37.607Z,4.18
2023-08-29T15:07:14.597Z,4.72
2023-08-29T15:09:46.926Z,4.70
2023-08-29T15:12:21.934Z,4.53
2023-08-29T15:14:54.902Z,5.10
2023-08-29T15:17:29.886Z,5.18
2023-08-29T15:20:05.410Z,4.72
2023-08-29T15:22:37.784Z,5.07
2023-08-29T15:25:10.339Z,6.35
2023-08-29T15:27:42.660Z,4.95
2023-08-29T15:30:15.065Z,5.05
2023-08-29T15:32:48.153Z,4.38
2023-08-29T15:35:20.517Z,4.40
2023-08-29T15:37:52.953Z,5.40
2023-08-29T15:40:25.790Z,4.95
2023-08-29T15:42:58.807Z,4.28
2023-08-29T15:45:35.691Z,4.20
2023-08-29T15:48:09.034Z,6.03
2023-08-29T15:50:43.741Z,4.63
2023-08-29T15:53:16.174Z,4.30
2023-08-29T15:55:48.648Z,4.07
2023-08-29T15:58:21.052Z,4.45
2023-08-29T16:00:53.640Z,4.03
2023-08-29T16:03:26.807Z,4.43
2023-08-29T16:05:59.263Z,3.50
2023-08-29T16:08:31.676Z,3.55
2023-08-29T16:11:04.091Z,3.83
2023-08-29T16:13:36.506Z,3.92
2023-08-29T16:16:09.447Z,3.90
2023-08-29T16:18:42.446Z,4.00
2023-08-29T16:21:17.520Z,4.57
2023-08-29T16:23:50.375Z,5.43
2023-08-29T16:26:22.787Z,4.78
2023-08-29T16:28:55.163Z,4.70
2023-08-29T16:31:27.515Z,4.60
2023-08-29T16:34:03.171Z,5.55
2023-08-29T16:36:35.960Z,6.15
2023-08-29T16:39:09.988Z,5.53
2023-08-29T16:41:42.509Z,5.05
2023-08-29T16:44:15.009Z,5.25
2023-08-29T16:46:47.458Z,5.05
2023-08-29T16:49:20.541Z,4.65
2023-08-29T16:51:52.975Z,4.70
2023-08-29T16:54:25.384Z,4.57
2023-08-29T16:56:57.847Z,4.72
2023-08-29T16:59:31.834Z,4.65
2023-08-29T17:02:04.651Z,5.82
2023-08-29T17:04:38.228Z,4.88
2023-08-29T17:07:10.731Z,7.45
2023-08-29T17:09:44.273Z,8.18
2023-08-29T17:12:17.905Z,11.48
2023-08-29T17:14:50.886Z,8.20
2023-08-29T17:17:23.411Z,8.60
2023-08-29T17:19:56.635Z,6.15
2023-08-29T17:22:29.014Z,6.68
2023-08-29T17:25:03.088Z,6.00
2023-08-29T17:27:35.763Z,5.45
2023-08-29T17:30:09.139Z,5.57
2023-08-29T17:32:42.800Z,5.88
2023-08-29T17:35:15.860Z,5.22
2023-08-29T17:37:48.289Z,5.40
2023-08-29T17:40:20.931Z,5.70
2023-08-29T17:42:53.263Z,6.25
2023-08-29T17:45:25.977Z,4.82
2023-08-29T17:47:58.338Z,6.03
2023-08-29T17:50:32.151Z,5.10
2023-08-29T17:53:04.522Z,5.47
2023-08-29T17:55:36.976Z,5.60
2023-08-29T17:58:12.768Z,5.30
2023-08-29T18:00:45.204Z,4.75
2023-08-29T18:03:18.632Z,4.25
2023-08-29T18:05:53.097Z,5.78
2023-08-29T18:08:26.638Z,5.93
2023-08-29T18:10:58.996Z,6.38
2023-08-29T18:13:31.404Z,5.53
2023-08-29T18:16:07.059Z,5.95
2023-08-29T18:18:39.633Z,5.38
2023-08-29T18:21:12.835Z,5.18
2023-08-29T18:23:45.236Z,5.47
2023-08-29T18:26:17.823Z,5.68
2023-08-29T18:28:50.224Z,6.10
2023-08-29T18:31:22.657Z,6.13
2023-08-29T18:33:55.941Z,5.45
2023-08-29T18:36:29.063Z,5.57
2023-08-29T18:39:01.488Z,5.65
2023-08-29T18:41:33.814Z,6.28
2023-08-29T18:44:06.178Z,5.60
2023-08-29T18:46:38.525Z,5.43
2023-08-29T18:49:10.884Z,6.32
2023-08-29T18:51:43.878Z,6.28
2023-08-29T18:54:16.264Z,5.63
2023-08-29T18:56:50.184Z,5.85
2023-08-29T18:59:22.619Z,5.70
2023-08-29T19:01:55.072Z,5.45
2023-08-29T19:04:27.369Z,4.93
2023-08-29T19:07:00.526Z,6.35
2023-08-29T19:09:32.915Z,5.65
2023-08-29T19:12:05.802Z,5.63
2023-08-29T19:14:38.202Z,6.90
2023-08-29T19:17:10.610Z,7.63
2023-08-29T19:19:42.988Z,6.30
2023-08-29T19:22:15.995Z,5.38
2023-08-29T19:24:48.468Z,5.00
2023-08-29T19:27:25.250Z,6.25
2023-08-29T19:29:59.544Z,6.05
2023-08-29T19:32:32.003Z,6.28
2023-08-29T19:35:05.310Z,6.38
2023-08-29T19:37:38.716Z,5.60
2023-08-29T19:40:11.983Z,5.78
2023-08-29T19:42:44.317Z,6.20
2023-08-29T19:45:16.870Z,5.70
2023-08-29T19:47:49.461Z,5.20
2023-08-29T19:50:21.811Z,6.00
2023-08-29T19:52:55.278Z,5.25
2023-08-29T19:55:29.511Z,5.57
2023-08-29T19:58:01.920Z,4.78
2023-08-29T20:00:34.265Z,4.93
2023-08-29T20:03:06.693Z,6.00
2023-08-29T20:05:39.037Z,5.13
2023-08-29T20:08:14.463Z,5.55
2023-08-29T20:10:47.358Z,5.55
2023-08-29T20:13:19.738Z,5.65
2023-08-29T20:15:52.090Z,5.35
2023-08-29T20:18:24.452Z,5.78
2023-08-29T20:20:56.838Z,6.13
2023-08-29T20:23:29.857Z,9.80
2023-08-29T20:26:02.221Z,6.13
2023-08-29T20:28:34.588Z,5.35
2023-08-29T20:31:09.170Z,5.32
2023-08-29T20:33:41.551Z,4.72
2023-08-29T20:36:13.966Z,4.70
2023-08-29T20:38:47.080Z,4.95
2023-08-29T20:41:19.643Z,5.80
2023-08-29T20:43:52.068Z,5.13
2023-08-29T20:46:24.485Z,6.15
2023-08-29T20:48:56.953Z,6.22
2023-08-29T20:51:29.685Z,5.22
2023-08-29T20:54:03.745Z,5.88
2023-08-29T20:56:36.121Z,5.95
2023-08-29T20:59:08.466Z,5.90
2023-08-29T21:01:40.877Z,5.18
2023-08-29T21:04:13.367Z,5.95
2023-08-29T21:06:45.748Z,5.63
2023-08-29T21:09:19.558Z,6.10
2023-08-29T21:11:51.948Z,5.63
2023-08-29T21:14:24.327Z,6.60
2023-08-29T21:16:56.616Z,5.88
2023-08-29T21:19:29.881Z,5.63
2023-08-29T21:22:02.774Z,6.03
2023-08-29T21:24:35.870Z,5.70
2023-08-29T21:27:08.590Z,6.20
2023-08-29T21:29:43.079Z,5.85
2023-08-29T21:32:15.455Z,5.20
2023-08-29T21:34:47.817Z,6.38
2023-08-29T21:37:20.141Z,5.30
2023-08-29T21:39:53.225Z,6.53
2023-08-29T21:42:25.571Z,6.22
2023-08-29T21:44:57.889Z,7.10
2023-08-29T21:47:30.265Z,5.50
2023-08-29T21:50:03.834Z,5.80
2023-08-29T21:52:36.196Z,6.88
2023-08-29T21:55:10.700Z,5.53
2023-08-29T21:57:43.040Z,6.25
2023-08-29T22:00:16.200Z,6.60
2023-08-29T22:02:48.560Z,6.05
2023-08-29T22:05:21.161Z,6.57
2023-08-29T22:07:53.574Z,7.05
2023-08-29T22:10:27.176Z,6.40
2023-08-29T22:13:00.290Z,6.13
2023-08-29T22:15:32.920Z,5.72
2023-08-29T22:18:06.059Z,5.90
2023-08-29T22:20:38.693Z,5.85
2023-08-29T22:23:11.088Z,4.88
2023-08-29T22:25:44.198Z,4.93
2023-08-29T22:28:16.592Z,5.05
2023-08-29T22:30:49.051Z,5.43
2023-08-29T22:33:21.414Z,6.05
2023-08-29T22:35:53.897Z,6.20
2023-08-29T22:38:26.249Z,5.65
2023-08-29T22:41:07.122Z,5.20
2023-08-29T22:43:41.778Z,5.72
2023-08-29T22:46:14.505Z,5.35
2023-08-29T22:48:46.917Z,5.43
2023-08-29T22:51:19.347Z,5.10
2023-08-29T22:53:51.666Z,5.68
2023-08-29T22:56:24.927Z,5.43
2023-08-29T22:58:57.251Z,5.60
2023-08-29T23:01:30.510Z,5.75
2023-08-29T23:04:03.158Z,5.53
2023-08-29T23:06:36.215Z,5.82
2023-08-29T23:09:09.939Z,5.05
2023-08-29T23:11:43.378Z,5.68
2023-08-29T23:14:21.783Z,5.82
2023-08-29T23:16:55.264Z,5.60
2023-08-29T23:19:27.857Z,5.68
2023-08-29T23:22:00.282Z,6.00
2023-08-29T23:24:32.863Z,5.15
2023-08-29T23:27:06.491Z,6.43
2023-08-29T23:29:39.268Z,6.53
2023-08-29T23:32:12.411Z,6.53
2023-08-29T23:34:45.601Z,6.20
2023-08-29T23:37:17.998Z,6.20
2023-08-29T23:39:50.369Z,5.63
2023-08-29T23:42:23.804Z,6.03
2023-08-29T23:44:56.296Z,6.13
2023-08-29T23:47:29.863Z,6.60
2023-08-29T23:50:02.945Z,6.13
2023-08-29T23:52:35.496Z,5.38
2023-08-29T23:55:08.232Z,5.50
2023-08-29T23:57:41.310Z,6.13
